Time;durP1;ratioP1;P1;durP2;ratioP2;P2;SDS_P1;SDS_P2;PMS_P1;PMS_P2;Temp;Humidity;BMP_temperature;BMP_pressure;BME280_temperature;BME280_humidity;BME280_pressure;Samples;Min_cycle;Max_cycle;Signal;HPM_P1;HPM_P2
2021/05/04 00:02:15;;;;;;;;;;;19.10;74.20;;;;;;5042097;28;87127;-67
2021/05/04 00:04:41;;;;;;;;;;;19.10;74.10;;;;;;5039454;28;88746;-67
2021/05/04 00:07:06;;;;;;;;;;;19.10;74.90;;;;;;5038195;28;89155;-68
2021/05/04 00:09:32;;;;;;;;;;;19.10;74.40;;;;;;5037122;28;87150;-67
2021/05/04 00:11:57;;;;;;;;;;;19.10;73.50;;;;;;5038705;28;87165;-67
2021/05/04 00:14:23;;;;;;;;;;;19.10;74.70;;;;;;5039601;28;87232;-67
2021/05/04 00:16:48;;;;;;;;;;;19.10;74.20;;;;;;5043470;28;86439;-67
2021/05/04 00:19:14;;;;;;;;;;;19.00;74.20;;;;;;5039171;28;87662;-67
2021/05/04 00:21:40;;;;;;;;;;;19.00;74.30;;;;;;5038148;28;87172;-67
2021/05/04 00:24:06;;;;;;;;;;;19.00;74.70;;;;;;5036664;28;89083;-67
2021/05/04 00:26:32;;;;;;;;;;;19.00;75.00;;;;;;5037331;28;89236;-67
2021/05/04 00:28:57;;;;;;;;;;;19.00;74.20;;;;;;5039786;28;88783;-67
2021/05/04 00:31:23;;;;;;;;;;;18.90;74.50;;;;;;5037829;28;88107;-67
2021/05/04 00:33:49;;;;;;;;;;;18.90;74.70;;;;;;5037584;28;87296;-67
2021/05/04 00:36:15;;;;;;;;;;;18.90;74.00;;;;;;5037101;28;87258;-67
2021/05/04 00:38:40;;;;;;;;;;;18.90;74.60;;;;;;5040886;28;87128;-67
2021/05/04 00:41:06;;;;;;;;;;;18.90;74.40;;;;;;5039989;28;86510;-67
2021/05/04 00:43:32;;;;;;;;;;;18.80;74.50;;;;;;5040573;28;88373;-67
2021/05/04 00:45:58;;;;;;;;;;;18.90;73.70;;;;;;5040217;28;90186;-67
2021/05/04 00:48:24;;;;;;;;;;;18.80;74.10;;;;;;5040457;28;88058;-67
2021/05/04 00:50:50;;;;;;;;;;;18.90;74.60;;;;;;5040235;28;89400;-68
2021/05/04 00:53:16;;;;;;;;;;;18.80;75.30;;;;;;5040599;28;89463;-67
2021/05/04 00:55:42;;;;;;;;;;;18.80;74.60;;;;;;5040217;28;87968;-67
2021/05/04 00:58:08;;;;;;;;;;;18.80;74.60;;;;;;5038617;28;88708;-67
2021/05/04 01:00:34;;;;;;;;;;;18.80;74.10;;;;;;5043967;27;88944;-67
2021/05/04 01:03:00;;;;;;;;;;;18.80;74.30;;;;;;5038701;28;87902;-67
2021/05/04 01:05:26;;;;;;;;;;;18.70;74.90;;;;;;5037962;27;87821;-67
2021/05/04 01:07:51;;;;;;;;;;;18.70;74.70;;;;;;5037618;27;87534;-67
2021/05/04 01:10:17;;;;;;;;;;;18.70;75.10;;;;;;5036506;28;87742;-67
2021/05/04 01:12:43;;;;;;;;;;;18.70;74.40;;;;;;5035299;27;90782;-67
2021/05/04 01:15:08;;;;;;;;;;;18.70;74.00;;;;;;5037281;27;87244;-67
2021/05/04 01:17:35;;;;;;;;;;;18.70;74.80;;;;;;5037113;28;87598;-67
2021/05/04 01:20:00;;;;;;;;;;;18.70;74.60;;;;;;5036562;28;89843;-67
2021/05/04 01:22:26;;;;;;;;;;;18.60;74.40;;;;;;5040610;28;87219;-67
2021/05/04 01:24:51;;;;;;;;;;;18.60;74.80;;;;;;5039283;28;88006;-67
2021/05/04 01:27:17;;;;;;;;;;;18.60;75.00;;;;;;5040892;28;87205;-68
2021/05/04 01:29:42;;;;;;;;;;;18.60;74.50;;;;;;5038579;27;87747;-67
2021/05/04 01:32:08;;;;;;;;;;;18.60;74.80;;;;;;5036055;27;87160;-67
2021/05/04 01:34:34;;;;;;;;;;;18.60;74.90;;;;;;5037123;27;87248;-67
2021/05/04 01:37:00;;;;;;;;;;;18.60;74.60;;;;;;5036157;27;88573;-67
2021/05/04 01:39:31;;;;;;;;;;;18.60;74.80;;;;;;5035750;28;88640;-67
2021/05/04 01:41:56;;;;;;;;;;;18.50;74.60;;;;;;5035147;28;87209;-67
2021/05/04 01:44:22;;;;;;;;;;;18.50;75.10;;;;;;5040400;27;87110;-67
2021/05/04 01:46:47;;;;;;;;;;;18.50;74.40;;;;;;5038891;27;87144;-68
2021/05/04 01:49:13;;;;;;;;;;;18.50;74.60;;;;;;5039456;28;87107;-67
2021/05/04 01:51:39;;;;;;;;;;;18.50;74.20;;;;;;5039759;28;88073;-67
2021/05/04 01:54:05;;;;;;;;;;;18.50;74.90;;;;;;5040739;27;86357;-67
2021/05/04 01:56:31;;;;;;;;;;;18.50;74.10;;;;;;5039497;28;87922;-67
2021/05/04 01:59:01;;;;;;;;;;;18.40;74.40;;;;;;5035540;28;88737;-67
2021/05/04 02:01:26;;;;;;;;;;;18.40;75.10;;;;;;5036192;28;88104;-67
2021/05/04 02:03:52;;;;;;;;;;;18.40;74.80;;;;;;5040879;28;87232;-67
2021/05/04 02:06:18;;;;;;;;;;;18.40;74.60;;;;;;5039231;28;87213;-67
2021/05/04 02:08:43;;;;;;;;;;;18.40;74.20;;;;;;5038987;28;88595;-67
2021/05/04 02:11:10;;;;;;;;;;;18.40;75.00;;;;;;5039258;28;88237;-67
2021/05/04 02:13:36;;;;;;;;;;;18.40;74.10;;;;;;5038460;28;87162;-67
2021/05/04 02:16:01;;;;;;;;;;;18.30;74.30;;;;;;5039355;28;87204;-67
2021/05/04 02:18:27;;;;;;;;;;;18.30;74.50;;;;;;5039476;28;87803;-67
2021/05/04 02:20:53;;;;;;;;;;;18.30;74.70;;;;;;5037748;28;89099;-67
2021/05/04 02:23:18;;;;;;;;;;;18.30;74.60;;;;;;5037126;28;87160;-67
2021/05/04 02:25:44;;;;;;;;;;;18.30;74.70;;;;;;5039583;28;88433;-67
2021/05/04 02:28:09;;;;;;;;;;;18.30;74.70;;;;;;5037061;28;87944;-67
2021/05/04 02:30:35;;;;;;;;;;;18.20;74.60;;;;;;5037762;28;88028;-67
2021/05/04 02:33:01;;;;;;;;;;;18.20;74.60;;;;;;5041398;27;87155;-67
2021/05/04 02:35:27;;;;;;;;;;;18.20;74.40;;;;;;5043095;28;87708;-67
2021/05/04 02:37:52;;;;;;;;;;;18.20;74.50;;;;;;5042861;28;88279;-67
2021/05/04 02:40:18;;;;;;;;;;;18.20;74.80;;;;;;5043141;28;88035;-67
2021/05/04 02:42:44;;;;;;;;;;;18.20;74.40;;;;;;5041265;28;88213;-67
2021/05/04 02:45:10;;;;;;;;;;;18.10;74.90;;;;;;5039936;28;90144;-67
2021/05/04 02:47:35;;;;;;;;;;;18.10;74.50;;;;;;5041828;28;88245;-67
2021/05/04 02:50:01;;;;;;;;;;;18.10;75.00;;;;;;5038313;28;89077;-67
2021/05/04 02:52:26;;;;;;;;;;;18.10;74.90;;;;;;5039161;28;87128;-67
2021/05/04 02:54:52;;;;;;;;;;;18.10;75.00;;;;;;5040336;28;87692;-67
2021/05/04 02:57:19;;;;;;;;;;;18.10;75.00;;;;;;5039721;28;88102;-67
2021/05/04 02:59:44;;;;;;;;;;;18.10;75.10;;;;;;5041262;27;88039;-67
2021/05/04 03:02:10;;;;;;;;;;;18.10;74.40;;;;;;5043181;28;87452;-67
2021/05/04 03:04:36;;;;;;;;;;;18.00;73.80;;;;;;5043119;28;88178;-67
2021/05/04 03:07:01;;;;;;;;;;;18.00;74.50;;;;;;5042010;27;87741;-67
2021/05/04 03:09:27;;;;;;;;;;;18.00;75.00;;;;;;5044102;27;87925;-67
2021/05/04 03:11:52;;;;;;;;;;;18.00;74.80;;;;;;5038116;28;87108;-67
2021/05/04 03:14:18;;;;;;;;;;;17.90;74.80;;;;;;5037820;28;88838;-67
2021/05/04 03:16:44;;;;;;;;;;;17.90;74.50;;;;;;5041040;27;89201;-67
2021/05/04 03:19:09;;;;;;;;;;;17.90;74.10;;;;;;5042495;27;87186;-67
2021/05/04 03:21:35;;;;;;;;;;;17.90;74.80;;;;;;5042916;28;87619;-67
2021/05/04 03:24:00;;;;;;;;;;;17.90;74.40;;;;;;5042335;28;87649;-67
2021/05/04 03:26:26;;;;;;;;;;;17.90;74.10;;;;;;5042063;27;87258;-67
2021/05/04 03:28:51;;;;;;;;;;;17.90;74.60;;;;;;5041221;27;87377;-67
2021/05/04 03:31:17;;;;;;;;;;;17.90;74.80;;;;;;5043414;28;88130;-67
2021/05/04 03:33:42;;;;;;;;;;;17.90;74.30;;;;;;5039691;28;87133;-67
2021/05/04 03:36:08;;;;;;;;;;;17.80;74.00;;;;;;5040059;27;89384;-67
2021/05/04 03:38:34;;;;;;;;;;;17.80;73.70;;;;;;5040245;28;88113;-67
2021/05/04 03:40:59;;;;;;;;;;;17.80;74.10;;;;;;5041028;27;89757;-67
2021/05/04 03:43:25;;;;;;;;;;;17.80;73.90;;;;;;5041614;27;88048;-67
2021/05/04 03:45:50;;;;;;;;;;;17.80;74.40;;;;;;5040273;28;88634;-67
2021/05/04 03:48:16;;;;;;;;;;;17.80;74.50;;;;;;5037949;28;88938;-67
2021/05/04 03:50:42;;;;;;;;;;;17.70;74.50;;;;;;5038848;28;88586;-67
2021/05/04 03:53:07;;;;;;;;;;;17.70;74.10;;;;;;5042687;27;87146;-67
2021/05/04 03:55:33;;;;;;;;;;;17.70;74.60;;;;;;5040704;27;88226;-67
2021/05/04 03:57:59;;;;;;;;;;;17.70;74.80;;;;;;5040541;28;87160;-67
2021/05/04 04:00:24;;;;;;;;;;;17.70;74.70;;;;;;5041743;28;87587;-67
2021/05/04 04:02:51;;;;;;;;;;;17.70;74.30;;;;;;5040701;28;90516;-67
2021/05/04 04:05:17;;;;;;;;;;;17.70;74.30;;;;;;5039872;28;87142;-67
2021/05/04 04:07:42;;;;;;;;;;;17.70;75.30;;;;;;5038977;28;88407;-67
2021/05/04 04:10:08;;;;;;;;;;;17.60;74.30;;;;;;5037765;28;89450;-67
2021/05/04 04:12:34;;;;;;;;;;;17.60;74.70;;;;;;5041690;28;88135;-67
2021/05/04 04:15:00;;;;;;;;;;;17.60;74.80;;;;;;5039148;28;88511;-67
2021/05/04 04:17:25;;;;;;;;;;;17.60;74.90;;;;;;5037180;28;87100;-67
2021/05/04 04:19:51;;;;;;;;;;;17.60;74.40;;;;;;5039172;28;87593;-67
2021/05/04 04:22:16;;;;;;;;;;;17.60;74.50;;;;;;5039217;28;88148;-67
2021/05/04 04:24:42;;;;;;;;;;;17.60;74.80;;;;;;5040743;28;87160;-67
2021/05/04 04:27:08;;;;;;;;;;;17.50;74.40;;;;;;5040163;28;88153;-67
2021/05/04 04:29:33;;;;;;;;;;;17.50;74.00;;;;;;5041014;28;87881;-67
2021/05/04 04:32:01;;;;;;;;;;;17.50;74.80;;;;;;5040661;28;88737;-67
2021/05/04 04:34:27;;;;;;;;;;;17.50;74.60;;;;;;5043637;28;88659;-67
2021/05/04 04:36:52;;;;;;;;;;;17.50;74.60;;;;;;5040884;28;87734;-67
2021/05/04 04:39:18;;;;;;;;;;;17.50;74.50;;;;;;5037583;28;87634;-67
2021/05/04 04:41:43;;;;;;;;;;;17.50;74.50;;;;;;5037408;28;88260;-67
2021/05/04 04:44:09;;;;;;;;;;;17.50;74.40;;;;;;5039586;28;86462;-67
2021/05/04 04:46:41;;;;;;;;;;;17.50;74.60;;;;;;5038556;28;88050;-67
2021/05/04 04:49:13;;;;;;;;;;;17.50;74.40;;;;;;5037285;28;89288;-67
2021/05/04 04:51:39;;;;;;;;;;;17.50;74.70;;;;;;5040730;28;88040;-67
2021/05/04 04:54:05;;;;;;;;;;;17.40;74.20;;;;;;5040365;28;89534;-67
2021/05/04 04:56:31;;;;;;;;;;;17.40;74.40;;;;;;5040385;27;88918;-67
2021/05/04 04:58:57;;;;;;;;;;;17.40;74.80;;;;;;5038389;28;87231;-67
2021/05/04 05:01:23;;;;;;;;;;;17.40;74.80;;;;;;5037625;28;88110;-67
2021/05/04 05:03:48;;;;;;;;;;;17.40;74.50;;;;;;5038943;27;87169;-67
2021/05/04 05:06:14;;;;;;;;;;;17.40;74.60;;;;;;5039380;28;87135;-67
2021/05/04 05:08:39;;;;;;;;;;;17.40;74.50;;;;;;5039802;28;87377;-67
2021/05/04 05:11:05;;;;;;;;;;;17.40;74.80;;;;;;5039204;28;87131;-67
2021/05/04 05:13:30;;;;;;;;;;;17.40;74.40;;;;;;5039969;28;87119;-67
2021/05/04 05:15:56;;;;;;;;;;;17.30;74.50;;;;;;5039568;28;89230;-67
2021/05/04 05:18:21;;;;;;;;;;;17.30;74.60;;;;;;5041223;28;87301;-67
2021/05/04 05:20:47;;;;;;;;;;;17.40;74.60;;;;;;5035647;28;88343;-67
2021/05/04 05:23:12;;;;;;;;;;;17.30;75.10;;;;;;5038859;28;87708;-67
2021/05/04 05:25:39;;;;;;;;;;;17.30;74.80;;;;;;5041370;28;88795;-67
2021/05/04 05:28:05;;;;;;;;;;;17.30;74.70;;;;;;5040299;27;87751;-67
2021/05/04 05:30:30;;;;;;;;;;;17.30;75.00;;;;;;5040633;27;87153;-67
2021/05/04 05:32:56;;;;;;;;;;;17.30;74.70;;;;;;5040024;27;87357;-67
2021/05/04 05:35:21;;;;;;;;;;;17.30;74.50;;;;;;5039541;27;87813;-67
2021/05/04 05:37:47;;;;;;;;;;;17.30;74.90;;;;;;5039431;28;87171;-67
2021/05/04 05:40:13;;;;;;;;;;;17.30;74.80;;;;;;5040843;28;88092;-67
2021/05/04 05:42:38;;;;;;;;;;;17.30;75.10;;;;;;5038302;27;87145;-67
2021/05/04 05:45:04;;;;;;;;;;;17.30;74.80;;;;;;5038536;27;87494;-67
2021/05/04 05:47:30;;;;;;;;;;;17.30;74.80;;;;;;5036164;27;88346;-68
2021/05/04 05:49:56;;;;;;;;;;;17.30;74.80;;;;;;5036107;28;87171;-67
2021/05/04 05:52:21;;;;;;;;;;;17.30;74.90;;;;;;5036480;27;87616;-67
2021/05/04 05:54:47;;;;;;;;;;;17.30;74.70;;;;;;5036506;27;87726;-67
2021/05/04 05:57:12;;;;;;;;;;;17.30;74.90;;;;;;5037989;28;86485;-67
2021/05/04 05:59:38;;;;;;;;;;;17.30;75.10;;;;;;5037112;28;87235;-67
2021/05/04 06:02:03;;;;;;;;;;;17.30;74.70;;;;;;5040050;28;88676;-67
2021/05/04 06:04:29;;;;;;;;;;;17.30;74.70;;;;;;5036212;28;89480;-67
2021/05/04 06:06:54;;;;;;;;;;;17.30;74.70;;;;;;5036672;28;88872;-68
2021/05/04 06:09:20;;;;;;;;;;;17.30;74.50;;;;;;5041289;28;87179;-67
2021/05/04 06:11:45;;;;;;;;;;;17.30;74.90;;;;;;5041288;28;87914;-67
2021/05/04 06:14:11;;;;;;;;;;;17.30;74.70;;;;;;5040880;28;90055;-67
2021/05/04 06:16:37;;;;;;;;;;;17.30;74.90;;;;;;5039933;28;87164;-67
2021/05/04 06:19:02;;;;;;;;;;;17.30;74.70;;;;;;5040628;28;87124;-67
2021/05/04 06:21:28;;;;;;;;;;;17.30;74.70;;;;;;5042732;28;88972;-67
2021/05/04 06:23:54;;;;;;;;;;;17.30;74.70;;;;;;5040251;28;87216;-67
2021/05/04 06:26:19;;;;;;;;;;;17.30;74.90;;;;;;5039128;28;89962;-67
2021/05/04 06:28:49;;;;;;;;;;;17.30;74.90;;;;;;5038178;28;89396;-67
2021/05/04 06:31:18;;;;;;;;;;;17.30;75.10;;;;;;5039431;28;88290;-67
2021/05/04 06:33:44;;;;;;;;;;;17.30;75.00;;;;;;5040489;28;89642;-67
2021/05/04 06:36:10;;;;;;;;;;;17.30;75.10;;;;;;5039598;28;87163;-67
2021/05/04 06:38:36;;;;;;;;;;;17.30;75.10;;;;;;5038479;28;88847;-67
2021/05/04 06:41:01;;;;;;;;;;;17.30;75.20;;;;;;5038591;28;88244;-67
2021/05/04 06:43:27;;;;;;;;;;;17.20;75.20;;;;;;5042515;28;88319;-68
2021/05/04 06:45:53;;;;;;;;;;;17.30;75.30;;;;;;5038836;28;87436;-67
2021/05/04 06:48:18;;;;;;;;;;;17.30;75.40;;;;;;5039019;28;87137;-67
2021/05/04 06:50:44;;;;;;;;;;;17.30;75.40;;;;;;5038542;28;88833;-67
2021/05/04 06:53:09;;;;;;;;;;;17.30;75.30;;;;;;5040392;28;90477;-67
2021/05/04 06:55:35;;;;;;;;;;;17.30;75.40;;;;;;5043749;28;87372;-67
2021/05/04 06:58:01;;;;;;;;;;;17.30;75.50;;;;;;5042369;27;88987;-67
2021/05/04 07:00:26;;;;;;;;;;;17.30;75.40;;;;;;5041327;27;88172;-67
2021/05/04 07:02:52;;;;;;;;;;;17.30;75.50;;;;;;5041074;28;87169;-67
2021/05/04 07:05:18;;;;;;;;;;;17.30;75.40;;;;;;5042858;27;87317;-67
2021/05/04 07:07:44;;;;;;;;;;;17.30;75.70;;;;;;5038085;27;87170;-67
2021/05/04 07:10:10;;;;;;;;;;;17.30;75.70;;;;;;5040475;28;87150;-67
2021/05/04 07:12:35;;;;;;;;;;;17.20;75.70;;;;;;5041324;27;89521;-67
2021/05/04 07:15:01;;;;;;;;;;;17.30;75.60;;;;;;5042229;27;88688;-67
2021/05/04 07:17:27;;;;;;;;;;;17.30;75.60;;;;;;5041981;27;88115;-68
2021/05/04 07:19:54;;;;;;;;;;;17.30;76.40;;;;;;5041016;27;89108;-67
2021/05/04 07:22:23;;;;;;;;;;;17.20;75.50;;;;;;5038762;27;87245;-67
2021/05/04 07:24:49;;;;;;;;;;;17.30;75.80;;;;;;5041165;27;88928;-67
2021/05/04 07:27:14;;;;;;;;;;;17.30;75.40;;;;;;5042389;28;89168;-67
2021/05/04 07:29:40;;;;;;;;;;;17.30;75.30;;;;;;5039227;28;87798;-67
2021/05/04 07:32:05;;;;;;;;;;;17.30;75.50;;;;;;5038927;28;87736;-67
2021/05/04 07:34:31;;;;;;;;;;;17.30;75.50;;;;;;5039204;27;86438;-67
2021/05/04 07:36:56;;;;;;;;;;;17.30;75.50;;;;;;5038220;28;87177;-67
2021/05/04 07:39:22;;;;;;;;;;;17.30;75.60;;;;;;5038148;27;88774;-67
2021/05/04 07:41:48;;;;;;;;;;;17.30;75.70;;;;;;5037161;27;88066;-67
2021/05/04 07:44:13;;;;;;;;;;;17.30;75.80;;;;;;5038300;27;87712;-67
2021/05/04 07:46:39;;;;;;;;;;;17.30;75.70;;;;;;5037416;28;88609;-67
2021/05/04 07:49:09;;;;;;;;;;;17.30;75.80;;;;;;5043306;28;87153;-67
2021/05/04 07:51:35;;;;;;;;;;;17.30;75.80;;;;;;5041929;27;89550;-67
2021/05/04 07:54:00;;;;;;;;;;;17.20;75.80;;;;;;5039784;27;87577;-67
2021/05/04 07:56:26;;;;;;;;;;;17.30;76.00;;;;;;5037807;28;88781;-67
2021/05/04 07:58:51;;;;;;;;;;;17.30;76.00;;;;;;5038703;28;86419;-67
2021/05/04 08:01:17;;;;;;;;;;;17.30;75.90;;;;;;5038443;28;87143;-67
2021/05/04 08:03:43;;;;;;;;;;;17.30;75.90;;;;;;5039588;28;87398;-67
2021/05/04 08:06:08;;;;;;;;;;;17.30;75.90;;;;;;5039686;28;89611;-67
2021/05/04 08:08:34;;;;;;;;;;;17.30;75.90;;;;;;5040950;28;87124;-67
2021/05/04 08:11:00;;;;;;;;;;;17.30;75.80;;;;;;5044006;28;87494;-67
2021/05/04 08:13:25;;;;;;;;;;;17.30;75.80;;;;;;5041277;28;88854;-67
2021/05/04 08:15:51;;;;;;;;;;;17.30;75.90;;;;;;5037799;28;88872;-67
2021/05/04 08:18:17;;;;;;;;;;;17.30;76.10;;;;;;5041238;28;89426;-67
2021/05/04 08:20:51;;;;;;;;;;;17.30;76.10;;;;;;5041474;28;87169;-67
2021/05/04 08:23:18;;;;;;;;;;;17.30;76.10;;;;;;5038842;28;88774;-67
2021/05/04 08:25:43;;;;;;;;;;;17.30;76.10;;;;;;5037190;28;89668;-67
2021/05/04 08:28:09;;;;;;;;;;;17.30;76.20;;;;;;5037892;28;87229;-67
2021/05/04 08:30:34;;;;;;;;;;;17.30;76.10;;;;;;5039211;28;88063;-67
2021/05/04 08:33:00;;;;;;;;;;;17.30;76.00;;;;;;5037640;28;87113;-67
2021/05/04 08:35:26;;;;;;;;;;;17.30;76.10;;;;;;5037644;28;87147;-67
2021/05/04 08:37:53;;;;;;;;;;;17.30;76.10;;;;;;5036155;28;89838;-67
2021/05/04 08:40:18;;;;;;;;;;;17.30;76.00;;;;;;5040504;28;88604;-67
2021/05/04 08:42:44;;;;;;;;;;;17.40;75.80;;;;;;5037401;28;89328;-67
2021/05/04 08:45:10;;;;;;;;;;;17.40;75.90;;;;;;5037094;28;87677;-67
2021/05/04 08:47:36;;;;;;;;;;;17.30;75.90;;;;;;5037167;28;87836;-67
2021/05/04 08:50:03;;;;;;;;;;;17.40;76.00;;;;;;5036971;28;87140;-67
2021/05/04 08:52:28;;;;;;;;;;;17.40;76.10;;;;;;5040258;28;88984;-67
2021/05/04 08:54:54;;;;;;;;;;;17.40;76.00;;;;;;5035622;28;89199;-67
2021/05/04 08:57:19;;;;;;;;;;;17.40;75.80;;;;;;5036131;28;88151;-67
2021/05/04 08:59:45;;;;;;;;;;;17.40;75.80;;;;;;5036265;27;88088;-67
2021/05/04 09:02:11;;;;;;;;;;;17.40;75.80;;;;;;5039334;28;88282;-67
2021/05/04 09:04:43;;;;;;;;;;;17.40;76.20;;;;;;5040799;27;88621;-67
2021/05/04 09:07:20;;;;;;;;;;;17.40;75.90;;;;;;5038059;27;87149;-67
2021/05/04 09:10:02;;;;;;;;;;;17.40;76.20;;;;;;5037543;27;88987;-67
2021/05/04 09:12:34;;;;;;;;;;;17.50;75.90;;;;;;5037092;27;87275;-67
2021/05/04 09:15:05;;;;;;;;;;;17.50;76.00;;;;;;5040323;27;87136;-67
2021/05/04 09:17:39;;;;;;;;;;;17.50;75.90;;;;;;5035833;27;89757;-67
2021/05/04 09:20:34;;;;;;;;;;;17.50;76.20;;;;;;5039216;27;88100;-69
2021/05/04 09:23:07;;;;;;;;;;;17.50;76.10;;;;;;5037304;28;89777;-67
2021/05/04 09:25:34;;;;;;;;;;;17.50;76.10;;;;;;5037100;27;89625;-67
2021/05/04 09:28:07;;;;;;;;;;;17.50;75.90;;;;;;5038517;27;88727;-67
2021/05/04 09:30:33;;;;;;;;;;;17.60;75.60;;;;;;5037805;27;88893;-67
2021/05/04 09:33:05;;;;;;;;;;;17.50;75.70;;;;;;5035734;27;87865;-67
2021/05/04 09:35:30;;;;;;;;;;;17.60;75.60;;;;;;5040305;27;87125;-67
2021/05/04 09:38:06;;;;;;;;;;;17.60;75.60;;;;;;5043774;27;86961;-67
2021/05/04 09:40:40;;;;;;;;;;;17.60;75.70;;;;;;5030905;28;88661;-68
2021/05/04 09:43:10;;;;;;;;;;;17.50;63.50;;;;;;5016023;28;88460;-69
2021/05/04 09:45:40;;;;;;;;;;;17.40;57.50;;;;;;5017908;28;88670;-67
2021/05/04 09:48:32;;;;;;;;;;;17.20;56.50;;;;;;5019890;28;87177;-68
2021/05/04 09:51:10;;;;;;;;;;;17.10;55.50;;;;;;5017247;28;89126;-65
2021/05/04 09:56:36;;;;;;;;;;;17.00;51.20;;;;;;5038313;28;88561;-65
2021/05/04 09:59:02;;;;;;;;;;;17.10;57.80;;;;;;5038688;28;89021;-65
2021/05/04 10:01:28;;;;;;;;;;;17.10;58.20;;;;;;5041529;28;87169;-68
2021/05/04 10:03:54;;;;;;;;;;;17.10;59.70;;;;;;5040535;28;88743;-68
2021/05/04 10:06:21;;;;;;;;;;;17.30;59.60;;;;;;5037891;28;88616;-68
2021/05/04 10:08:47;;;;;;;;;;;17.40;61.20;;;;;;5040115;28;87148;-68
2021/05/04 10:11:20;;;;;;;;;;;17.40;63.00;;;;;;5039000;28;88080;-68
2021/05/04 10:13:47;;;;;;;;;;;17.60;63.40;;;;;;5036520;28;89026;-68
2021/05/04 10:16:13;;;;;;;;;;;17.60;63.90;;;;;;5036015;28;87205;-68
2021/05/04 10:18:38;;;;;;;;;;;17.60;64.00;;;;;;5036393;28;87097;-68
2021/05/04 10:21:06;;;;;;;;;;;17.70;63.20;;;;;;5037078;28;89180;-68
2021/05/04 10:23:32;;;;;;;;;;;17.80;63.60;;;;;;5038722;28;87157;-68
2021/05/04 10:25:59;;;;;;;;;;;17.80;64.70;;;;;;5035901;28;87541;-68
2021/05/04 10:28:28;;;;;;;;;;;17.90;63.10;;;;;;5036231;28;86390;-68
2021/05/04 10:30:58;;;;;;;;;;;17.90;63.30;;;;;;5037638;28;87128;-68
2021/05/04 10:33:28;;;;;;;;;;;17.90;64.50;;;;;;5039570;28;88261;-68
2021/05/04 10:35:54;;;;;;;;;;;17.90;63.50;;;;;;5035367;28;88117;-68
2021/05/04 10:38:20;;;;;;;;;;;17.90;63.50;;;;;;5036783;28;90665;-68
2021/05/04 10:41:05;;;;;;;;;;;17.90;62.80;;;;;;5035502;28;88987;-68
2021/05/04 10:43:33;;;;;;;;;;;18.00;62.90;;;;;;5038534;28;87277;-68
2021/05/04 10:45:59;;;;;;;;;;;18.00;62.50;;;;;;5038630;28;88570;-67
2021/05/04 10:48:46;;;;;;;;;;;18.10;61.80;;;;;;5039049;28;88609;-68
2021/05/04 10:51:14;;;;;;;;;;;18.10;62.60;;;;;;5037936;28;89883;-68
2021/05/04 10:53:51;;;;;;;;;;;18.10;62.50;;;;;;5038151;28;88385;-68
2021/05/04 10:56:17;;;;;;;;;;;18.10;63.00;;;;;;5040286;28;87219;-68
2021/05/04 10:58:44;;;;;;;;;;;18.10;62.90;;;;;;5039861;28;87118;-68
2021/05/04 11:01:10;;;;;;;;;;;18.10;61.70;;;;;;5038229;28;90249;-68
2021/05/04 11:03:35;;;;;;;;;;;18.10;61.90;;;;;;5038469;27;87115;-68
2021/05/04 11:06:02;;;;;;;;;;;18.20;61.60;;;;;;5042538;28;87271;-68
2021/05/04 11:08:40;;;;;;;;;;;18.20;61.20;;;;;;5039646;27;87147;-67
2021/05/04 11:11:20;;;;;;;;;;;18.40;59.60;;;;;;5039357;28;87667;-67
2021/05/04 11:13:51;;;;;;;;;;;18.70;57.70;;;;;;5038727;27;88597;-66
2021/05/04 11:16:32;;;;;;;;;;;18.80;53.10;;;;;;5040523;27;87131;-67
2021/05/04 11:19:02;;;;;;;;;;;18.60;54.00;;;;;;5039375;27;88895;-69
2021/05/04 11:21:43;;;;;;;;;;;18.80;53.60;;;;;;5039080;27;89847;-67
2021/05/04 11:24:11;;;;;;;;;;;18.90;55.20;;;;;;5040988;28;87124;-68
2021/05/04 11:26:44;;;;;;;;;;;18.90;55.10;;;;;;5039014;27;89396;-68
2021/05/04 11:29:10;;;;;;;;;;;18.80;52.70;;;;;;5045229;27;89280;-67
2021/05/04 11:31:39;;;;;;;;;;;18.70;52.10;;;;;;5042442;27;88800;-66
2021/05/04 11:34:23;;;;;;;;;;;19.20;53.20;;;;;;5039247;27;87964;-65
2021/05/04 11:36:49;;;;;;;;;;;19.10;53.70;;;;;;5041916;28;87118;-66
2021/05/04 11:39:14;;;;;;;;;;;18.90;50.00;;;;;;5042653;28;87138;-67
2021/05/04 11:41:40;;;;;;;;;;;18.70;53.50;;;;;;5039334;28;88424;-61
2021/05/04 11:44:05;;;;;;;;;;;18.80;53.30;;;;;;5038745;28;86403;-67
2021/05/04 11:46:32;;;;;;;;;;;19.00;52.90;;;;;;5039457;27;87127;-67
2021/05/04 11:48:59;;;;;;;;;;;19.20;53.60;;;;;;5037447;27;89231;-67
2021/05/04 11:51:25;;;;;;;;;;;19.40;51.40;;;;;;5042471;27;88324;-59
2021/05/04 11:53:53;;;;;;;;;;;19.40;50.40;;;;;;5037898;28;87658;-64
2021/05/04 11:56:19;;;;;;;;;;;19.30;51.90;;;;;;5040125;28;87095;-61
2021/05/04 11:58:45;;;;;;;;;;;19.60;52.00;;;;;;5039286;28;88953;-70
2021/05/04 12:01:11;;;;;;;;;;;19.50;51.70;;;;;;5037654;28;88173;-64
2021/05/04 12:03:36;;;;;;;;;;;19.40;50.00;;;;;;5040413;28;88159;-60
2021/05/04 12:06:03;;;;;;;;;;;19.70;51.80;;;;;;5042061;27;87188;-59
2021/05/04 12:08:29;;;;;;;;;;;19.40;52.80;;;;;;5039784;28;88619;-63
2021/05/04 12:10:55;;;;;;;;;;;19.20;54.40;;;;;;5041266;28;87154;-63
2021/05/04 12:13:22;;;;;;;;;;;19.20;55.80;;;;;;5042624;28;87586;-63
2021/05/04 12:15:51;;;;;;;;;;;19.10;55.00;;;;;;5036468;28;88059;-63
2021/05/04 12:18:17;;;;;;;;;;;19.10;55.40;;;;;;5038080;28;90093;-60
2021/05/04 12:20:50;;;;;;;;;;;19.20;54.50;;;;;;5038966;28;87271;-62
2021/05/04 12:23:29;;;;;;;;;;;19.30;54.30;;;;;;5037346;28;88079;-62
2021/05/04 12:25:59;;;;;;;;;;;19.20;55.10;;;;;;5039730;28;87953;-61
2021/05/04 12:28:36;;;;;;;;;;;19.20;55.00;;;;;;5040619;28;89176;-58
2021/05/04 12:31:01;;;;;;;;;;;19.20;57.60;;;;;;5041955;28;87129;-63
2021/05/04 12:33:27;;;;;;;;;;;19.30;57.60;;;;;;5044591;28;88961;-60
2021/05/04 12:36:35;;;;;;;;;;;19.30;57.50;;;;;;5041447;28;87122;-60
2021/05/04 12:41:15;;;;;;;;;;;19.40;57.60;;;;;;5036398;28;89105;-71
2021/05/04 12:43:44;;;;;;;;;;;19.40;54.60;;;;;;5037225;28;87096;-57
2021/05/04 12:46:11;;;;;;;;;;;19.50;56.80;;;;;;5039129;28;89011;-62
2021/05/04 12:48:38;;;;;;;;;;;19.60;56.20;;;;;;5040177;28;87306;-62
2021/05/04 12:51:03;;;;;;;;;;;19.60;56.90;;;;;;5039427;28;87110;-63
2021/05/04 12:53:40;;;;;;;;;;;19.60;57.50;;;;;;5039296;28;87195;-59
2021/05/04 12:56:10;;;;;;;;;;;19.60;56.50;;;;;;5041809;28;88113;-61
2021/05/04 12:59:11;;;;;;;;;;;19.60;55.70;;;;;;5039923;28;87209;-57
2021/05/04 13:01:50;;;;;;;;;;;19.60;55.40;;;;;;4997273;28;89116;-62
2021/05/04 13:04:33;;;;;;;;;;;19.60;55.60;;;;;;5031731;27;87155;-61
2021/05/04 13:07:04;;;;;;;;;;;19.60;53.40;;;;;;5040226;27;88208;-62
2021/05/04 13:29:29;;;;;;;;;;;19.90;54.70;;;;;;5038691;28;88742;-66
2021/05/04 13:32:04;;;;;;;;;;;19.90;56.80;;;;;;5033598;27;88437;-62
2021/05/04 13:37:18;;;;;;;;;;;20.00;57.80;;;;;;5039363;27;88499;-60
2021/05/04 13:47:44;;;;;;;;;;;20.10;52.20;;;;;;5037368;28;87150;-62
2021/05/04 13:50:11;;;;;;;;;;;20.20;47.00;;;;;;5037745;28;89029;-59
2021/05/04 13:52:37;;;;;;;;;;;20.30;49.30;;;;;;5038333;27;88850;-59
2021/05/04 13:55:04;;;;;;;;;;;20.50;49.30;;;;;;5037866;27;87159;-59
2021/05/04 13:57:32;;;;;;;;;;;20.60;48.10;;;;;;5036856;28;88627;-60
2021/05/04 13:59:58;;;;;;;;;;;20.50;49.40;;;;;;5038894;28;90253;-64
2021/05/04 14:26:21;;;;;;;;;;;20.50;49.30;;;;;;5036328;28;88103;-61
2021/05/04 14:28:47;;;;;;;;;;;20.50;49.10;;;;;;5038578;27;89421;-61
2021/05/04 14:31:13;;;;;;;;;;;20.40;49.40;;;;;;5044784;28;87144;-61
2021/05/04 14:33:38;;;;;;;;;;;20.30;47.00;;;;;;5040621;28;87106;-59
2021/05/04 14:36:28;;;;;;;;;;;20.40;48.80;;;;;;5040463;28;87259;-59
2021/05/04 14:41:40;;;;;;;;;;;20.30;51.10;;;;;;5040620;28;88237;-59
2021/05/04 14:57:58;;;;;;;;;;;20.40;53.90;;;;;;5038589;28;87134;-55
2021/05/04 15:02:53;;;;;;;;;;;20.40;53.70;;;;;;5039536;27;87929;-59
2021/05/04 15:05:21;;;;;;;;;;;20.40;53.60;;;;;;5041973;27;87116;-58
2021/05/04 15:07:47;;;;;;;;;;;20.30;54.00;;;;;;5038033;27;88888;-58
2021/05/04 15:10:13;;;;;;;;;;;20.50;53.10;;;;;;5039778;28;86780;-59
2021/05/04 15:12:39;;;;;;;;;;;20.50;53.50;;;;;;5038335;27;87102;-60
2021/05/04 15:15:07;;;;;;;;;;;20.40;55.40;;;;;;5045523;27;89139;-59
2021/05/04 15:17:43;;;;;;;;;;;20.40;54.00;;;;;;5038379;27;88057;-60
2021/05/04 15:22:57;;;;;;;;;;;20.40;54.40;;;;;;5021767;27;87622;-61
2021/05/04 15:25:23;;;;;;;;;;;20.40;54.90;;;;;;5041865;27;87120;-60
2021/05/04 15:27:50;;;;;;;;;;;20.40;55.90;;;;;;5042391;27;87778;-61
2021/05/04 15:30:17;;;;;;;;;;;20.40;56.30;;;;;;5041470;28;88793;-62
2021/05/04 15:35:24;;;;;;;;;;;20.50;57.30;;;;;;5039342;27;87459;-60
2021/05/04 15:37:49;;;;;;;;;;;20.40;57.90;;;;;;5043475;28;88222;-60
2021/05/04 15:40:15;;;;;;;;;;;20.50;58.30;;;;;;5040933;27;88546;-59
2021/05/04 15:42:41;;;;;;;;;;;20.50;58.70;;;;;;5039524;27;88995;-59